createdAt,value
2023-02-27T00:00:57.818Z,-1.42
2023-02-27T00:03:24.052Z,-1.53
2023-02-27T00:05:49.901Z,-1.47
2023-02-27T00:08:15.755Z,-1.57
2023-02-27T00:10:41.633Z,-1.52
2023-02-27T00:13:07.853Z,-1.58
2023-02-27T00:15:33.784Z,-1.50
2023-02-27T00:17:59.689Z,-1.53
2023-02-27T00:20:25.959Z,-1.62
2023-02-27T00:22:51.876Z,-1.59
2023-02-27T00:25:18.190Z,-1.61
2023-02-27T00:27:44.283Z,-1.59
2023-02-27T00:30:13.413Z,-1.60
2023-02-27T00:32:41.267Z,-1.62
2023-02-27T00:35:09.265Z,-1.62
2023-02-27T00:37:35.423Z,-1.61
2023-02-27T00:40:01.858Z,-1.74
2023-02-27T00:42:27.932Z,-1.72
2023-02-27T00:44:54.429Z,-1.73
2023-02-27T00:47:20.362Z,-1.75
2023-02-27T00:49:46.204Z,-1.74
2023-02-27T00:52:12.013Z,-1.88
2023-02-27T00:54:37.885Z,-1.91
2023-02-27T00:57:03.847Z,-1.83
2023-02-27T00:59:29.702Z,-1.82
2023-02-27T01:01:55.668Z,-1.88
2023-02-27T01:04:21.590Z,-1.96
2023-02-27T01:06:47.432Z,-1.85
2023-02-27T01:09:13.255Z,-1.96
2023-02-27T01:11:39.038Z,-1.82
2023-02-27T01:14:04.852Z,-1.85
2023-02-27T01:16:31.004Z,-1.88
2023-02-27T01:18:56.820Z,-1.81
2023-02-27T01:21:23.682Z,-1.84
2023-02-27T01:23:49.578Z,-1.82
2023-02-27T01:26:15.513Z,-1.95
2023-02-27T01:28:41.433Z,-1.96
2023-02-27T01:31:08.640Z,-1.95
2023-02-27T01:33:34.576Z,-1.90
2023-02-27T01:36:00.660Z,-1.82
2023-02-27T01:38:26.599Z,-1.89
2023-02-27T01:40:52.665Z,-2.01
2023-02-27T01:43:20.770Z,-1.99
2023-02-27T01:45:48.263Z,-1.98
2023-02-27T01:48:28.280Z,-1.98
2023-02-27T01:50:56.806Z,-1.91
2023-02-27T01:53:25.534Z,-2.03
2023-02-27T01:55:59.890Z,-2.10
2023-02-27T01:58:26.398Z,-2.18
2023-02-27T02:00:52.570Z,-2.13
2023-02-27T02:03:33.928Z,-2.16
2023-02-27T02:06:02.124Z,-2.23
2023-02-27T02:08:32.026Z,-2.16
2023-02-27T02:10:58.602Z,-2.04
2023-02-27T02:13:25.623Z,-2.10
2023-02-27T02:15:56.970Z,-2.04
2023-02-27T02:18:41.561Z,-2.18
2023-02-27T02:21:26.601Z,-2.32
2023-02-27T02:24:15.238Z,-2.17
2023-02-27T02:27:08.519Z,-2.42
2023-02-27T02:29:47.349Z,-2.40
2023-02-27T02:32:19.069Z,-2.52
2023-02-27T02:34:50.691Z,-2.55
2023-02-27T02:37:41.456Z,-2.44
2023-02-27T02:40:15.612Z,-2.44
2023-02-27T02:43:07.760Z,-2.55
2023-02-27T02:45:43.781Z,-2.51
2023-02-27T02:48:36.543Z,-2.64
2023-02-27T02:51:16.587Z,-2.59
2023-02-27T02:53:55.010Z,-2.54
2023-02-27T02:56:29.869Z,-2.44
2023-02-27T02:59:01.662Z,-2.31
2023-02-27T03:01:35.467Z,-2.29
2023-02-27T03:04:04.040Z,-2.45
2023-02-27T03:06:38.036Z,-2.46
2023-02-27T03:09:28.291Z,-2.63
2023-02-27T03:11:57.491Z,-2.55
2023-02-27T03:14:55.194Z,-2.63
2023-02-27T03:17:30.129Z,-2.57
2023-02-27T03:20:01.965Z,-2.47
2023-02-27T03:22:33.558Z,-2.69
2023-02-27T03:25:02.573Z,-2.64
2023-02-27T03:27:36.426Z,-2.56
2023-02-27T03:30:08.141Z,-2.56
2023-02-27T03:32:56.202Z,-2.58
2023-02-27T03:35:29.485Z,-2.64
2023-02-27T03:38:11.048Z,-2.61
2023-02-27T03:40:58.388Z,-2.65
2023-02-27T03:43:35.686Z,-2.52
2023-02-27T03:46:21.779Z,-2.56
2023-02-27T03:48:47.791Z,-2.59
2023-02-27T03:51:17.620Z,-2.63
2023-02-27T03:53:56.876Z,-2.65
2023-02-27T03:56:31.956Z,-2.61
2023-02-27T03:58:58.295Z,-2.59
2023-02-27T04:01:24.957Z,-2.63
2023-02-27T04:03:56.876Z,-2.65
2023-02-27T04:06:41.881Z,-2.59
2023-02-27T04:09:26.923Z,-2.71
2023-02-27T04:12:22.218Z,-2.72
2023-02-27T04:15:06.334Z,-2.80
2023-02-27T04:17:44.654Z,-2.94
2023-02-27T04:20:34.639Z,-2.93
2023-02-27T04:23:18.362Z,-2.90
2023-02-27T04:26:15.230Z,-2.83
2023-02-27T04:28:48.381Z,-2.72
2023-02-27T04:31:23.488Z,-2.73
2023-02-27T04:34:25.624Z,-2.81
2023-02-27T04:37:04.889Z,-2.75
2023-02-27T04:39:59.507Z,-2.72
2023-02-27T04:42:30.569Z,-2.57
2023-02-27T04:45:01.471Z,-2.80
2023-02-27T04:47:34.088Z,-2.74
2023-02-27T04:50:14.669Z,-2.87
2023-02-27T04:52:45.374Z,-2.83
2023-02-27T04:55:22.218Z,-2.88
2023-02-27T04:57:54.783Z,-2.74
2023-02-27T05:00:22.662Z,-2.75
2023-02-27T05:02:59.401Z,-2.81
2023-02-27T05:05:29.672Z,-2.87
2023-02-27T05:08:01.259Z,-2.92
2023-02-27T05:10:50.501Z,-2.91
2023-02-27T05:13:48.702Z,-2.98
2023-02-27T05:16:21.402Z,-2.97
2023-02-27T05:18:48.213Z,-2.99
2023-02-27T05:21:30.200Z,-2.95
2023-02-27T05:24:08.979Z,-2.87
2023-02-27T05:26:53.152Z,-2.98
2023-02-27T05:29:30.837Z,-3.02
2023-02-27T05:32:08.434Z,-2.93
2023-02-27T05:34:43.228Z,-2.93
2023-02-27T05:37:24.574Z,-2.93
2023-02-27T05:39:51.713Z,-2.97
2023-02-27T05:42:27.698Z,-3.06
2023-02-27T05:45:21.781Z,-3.05
2023-02-27T05:47:58.283Z,-3.06
2023-02-27T05:50:30.652Z,-3.11
2023-02-27T05:53:02.092Z,-3.09
2023-02-27T05:55:35.976Z,-3.18
2023-02-27T05:58:14.903Z,-3.06
2023-02-27T06:00:46.814Z,-3.01
2023-02-27T06:03:13.461Z,-3.14
2023-02-27T06:05:41.905Z,-3.03
2023-02-27T06:08:08.150Z,-3.19
2023-02-27T06:10:34.083Z,-3.01
2023-02-27T06:12:59.892Z,-2.95
2023-02-27T06:15:26.855Z,-2.98
2023-02-27T06:17:52.691Z,-2.88
2023-02-27T06:20:18.711Z,-2.91
2023-02-27T06:22:44.674Z,-2.88
2023-02-27T06:25:10.634Z,-2.97
2023-02-27T06:27:36.692Z,-2.96
2023-02-27T06:30:03.007Z,-3.01
2023-02-27T06:32:29.101Z,-2.98
2023-02-27T06:34:55.102Z,-2.89
2023-02-27T06:37:21.675Z,-2.89
2023-02-27T06:39:47.589Z,-2.93
2023-02-27T06:42:13.534Z,-2.92
2023-02-27T06:44:39.433Z,-2.91
2023-02-27T06:47:05.326Z,-2.86
2023-02-27T06:49:31.594Z,-2.91
2023-02-27T06:51:57.472Z,-2.94
2023-02-27T06:54:23.383Z,-3.00
2023-02-27T06:56:51.129Z,-2.87
2023-02-27T06:59:17.747Z,-2.85
2023-02-27T07:01:43.596Z,-2.77
2023-02-27T07:04:14.317Z,-2.77
2023-02-27T07:07:34.898Z,-2.71
2023-02-27T07:09:27.526Z,-2.73
2023-02-27T07:11:53.677Z,-2.81
2023-02-27T07:14:19.613Z,-2.69
2023-02-27T07:16:50.089Z,-2.82
2023-02-27T07:19:20.128Z,-2.98
2023-02-27T07:21:46.052Z,-2.84
2023-02-27T07:24:11.933Z,-2.67
2023-02-27T07:26:37.943Z,-2.59
2023-02-27T07:29:04.529Z,-2.57
2023-02-27T07:31:30.802Z,-2.45
2023-02-27T07:33:56.775Z,-2.42
2023-02-27T07:36:23.143Z,-2.48
2023-02-27T07:38:49.523Z,-2.47
2023-02-27T07:41:29.691Z,-2.54
2023-02-27T07:43:56.368Z,-2.36
2023-02-27T07:46:23.381Z,-2.40
2023-02-27T07:48:49.757Z,-2.36
2023-02-27T07:51:15.533Z,-2.27
2023-02-27T07:53:41.364Z,-2.24
2023-02-27T07:56:07.656Z,-2.19
2023-02-27T07:58:33.478Z,-2.15
2023-02-27T08:00:59.377Z,-2.13
2023-02-27T08:03:25.232Z,-2.08
2023-02-27T08:05:51.143Z,-2.05
2023-02-27T08:08:17.174Z,-1.91
2023-02-27T08:10:43.099Z,-1.96
2023-02-27T08:13:08.921Z,-2.19
2023-02-27T08:15:34.679Z,-1.99
2023-02-27T08:18:00.525Z,-1.89
2023-02-27T08:20:27.038Z,-1.78
2023-02-27T08:22:52.929Z,-1.69
2023-02-27T08:25:19.732Z,-1.70
2023-02-27T08:27:46.226Z,-1.67
2023-02-27T08:30:12.440Z,-1.55
2023-02-27T08:32:38.925Z,-1.50
2023-02-27T08:35:05.695Z,-1.57
2023-02-27T08:37:31.578Z,-1.51
2023-02-27T08:39:57.401Z,-1.52
2023-02-27T08:42:23.905Z,-1.45
2023-02-27T08:44:50.842Z,-1.36
2023-02-27T08:47:17.337Z,-1.43
2023-02-27T08:49:43.156Z,-1.41
2023-02-27T08:52:09.241Z,-1.40
2023-02-27T08:54:36.472Z,-1.33
2023-02-27T08:57:03.454Z,-1.24
2023-02-27T08:59:30.168Z,-1.24
2023-02-27T09:01:56.087Z,-1.25
2023-02-27T09:04:21.923Z,-1.16
2023-02-27T09:06:48.015Z,-1.23
2023-02-27T09:09:13.901Z,-1.15
2023-02-27T09:11:40.083Z,-1.10
2023-02-27T09:14:06.743Z,-1.03
2023-02-27T09:16:32.875Z,-0.89
2023-02-27T09:18:58.853Z,-0.89
2023-02-27T09:21:24.723Z,-0.78
2023-02-27T09:23:51.701Z,-0.79
2023-02-27T09:26:18.015Z,-0.51
2023-02-27T09:28:43.901Z,-0.46
2023-02-27T09:31:11.406Z,-0.49
2023-02-27T09:33:38.139Z,-0.31
2023-02-27T09:36:05.390Z,-0.22
2023-02-27T09:38:34.830Z,-0.09
2023-02-27T09:41:03.016Z,0.06
2023-02-27T09:43:46.540Z,-0.01
2023-02-27T09:46:20.881Z,0.10
2023-02-27T09:48:59.085Z,0.14
2023-02-27T09:51:26.373Z,0.49
2023-02-27T09:53:56.595Z,0.73
2023-02-27T09:56:32.137Z,0.86
2023-02-27T09:59:13.368Z,0.78
2023-02-27T10:01:47.494Z,1.23
2023-02-27T10:04:27.238Z,1.79
2023-02-27T10:07:19.163Z,2.56
2023-02-27T10:09:54.391Z,3.35
2023-02-27T10:12:38.606Z,3.93
2023-02-27T10:15:32.258Z,3.93
2023-02-27T10:18:16.858Z,4.27
2023-02-27T10:21:12.511Z,4.43
2023-02-27T10:23:53.187Z,5.01
2023-02-27T10:26:31.430Z,6.75
2023-02-27T10:29:09.784Z,8.47
2023-02-27T10:31:36.291Z,9.75
2023-02-27T10:34:02.426Z,10.95
2023-02-27T10:36:34.177Z,11.91
2023-02-27T10:39:12.202Z,12.87
2023-02-27T10:41:40.155Z,12.90
2023-02-27T10:44:06.192Z,12.87
2023-02-27T10:46:37.282Z,14.84
2023-02-27T10:49:13.355Z,15.16
2023-02-27T10:51:39.786Z,14.54
2023-02-27T10:54:24.826Z,14.12
2023-02-27T10:56:54.581Z,14.88
2023-02-27T10:59:26.770Z,16.73
2023-02-27T11:01:56.134Z,16.20
2023-02-27T11:04:38.837Z,17.08
2023-02-27T11:07:08.616Z,18.57
2023-02-27T11:09:37.518Z,19.74
2023-02-27T11:12:10.976Z,19.58
2023-02-27T11:14:49.259Z,18.66
2023-02-27T11:17:25.140Z,19.56
2023-02-27T11:19:51.059Z,19.61
2023-02-27T11:22:22.468Z,19.24
2023-02-27T11:24:48.903Z,17.81
2023-02-27T11:27:28.369Z,18.72
2023-02-27T11:29:59.407Z,20.31
2023-02-27T11:32:41.779Z,19.30
2023-02-27T11:35:33.541Z,17.51
2023-02-27T11:38:02.676Z,14.69
2023-02-27T11:40:31.939Z,16.85
2023-02-27T11:43:18.194Z,14.91
2023-02-27T11:46:08.307Z,14.79
2023-02-27T11:48:45.621Z,13.19
2023-02-27T11:51:27.398Z,16.12
2023-02-27T11:54:20.039Z,20.17
2023-02-27T11:56:53.026Z,21.17
2023-02-27T11:59:29.536Z,21.64
2023-02-27T12:02:17.213Z,22.82
2023-02-27T12:04:49.465Z,23.04
2023-02-27T12:07:33.851Z,21.56
2023-02-27T12:10:05.875Z,23.03
2023-02-27T12:12:42.376Z,23.03
2023-02-27T12:15:17.387Z,24.85
2023-02-27T12:18:22.396Z,23.72
2023-02-27T12:20:58.536Z,23.72
2023-02-27T12:23:43.837Z,23.78
2023-02-27T12:26:16.442Z,20.10
2023-02-27T12:29:08.384Z,21.11
2023-02-27T12:31:34.249Z,20.81
2023-02-27T12:34:13.724Z,18.84
2023-02-27T12:36:39.628Z,20.08
2023-02-27T12:39:17.344Z,21.74
2023-02-27T12:42:05.033Z,21.41
2023-02-27T12:44:53.339Z,18.26
2023-02-27T12:47:31.397Z,18.38
2023-02-27T12:50:15.121Z,19.67
2023-02-27T12:53:04.581Z,16.35
2023-02-27T12:55:34.784Z,15.41
2023-02-27T12:58:22.797Z,17.74
2023-02-27T13:00:51.985Z,20.00
2023-02-27T13:03:35.060Z,17.21
2023-02-27T13:06:29.890Z,16.91
2023-02-27T13:08:55.729Z,17.53
2023-02-27T13:11:32.512Z,15.96
2023-02-27T13:14:05.832Z,19.01
2023-02-27T13:16:40.731Z,20.93
2023-02-27T13:19:19.459Z,22.88
2023-02-27T13:21:54.639Z,20.05
2023-02-27T13:24:24.155Z,18.04
2023-02-27T13:27:06.552Z,13.80
2023-02-27T13:29:47.138Z,12.45
2023-02-27T13:32:21.607Z,12.14
2023-02-27T13:34:56.271Z,13.47
2023-02-27T13:37:22.299Z,14.90
2023-02-27T13:39:48.219Z,14.25
2023-02-27T13:42:26.629Z,15.19
2023-02-27T13:45:46.912Z,15.68
2023-02-27T13:48:46.522Z,14.89
2023-02-27T13:51:48.660Z,12.25
2023-02-27T13:54:19.876Z,10.28
2023-02-27T13:56:58.922Z,9.33
2023-02-27T13:59:31.180Z,9.04
2023-02-27T14:02:06.183Z,8.93
2023-02-27T14:04:35.370Z,8.46
2023-02-27T14:07:06.774Z,8.60
2023-02-27T14:09:39.052Z,7.71
2023-02-27T14:12:07.160Z,7.22
2023-02-27T14:14:49.292Z,6.47
2023-02-27T14:17:36.694Z,5.86
2023-02-27T14:20:03.750Z,5.59
2023-02-27T14:22:42.865Z,5.61
2023-02-27T14:25:17.988Z,5.47
2023-02-27T14:27:43.866Z,5.49
2023-02-27T14:30:30.457Z,5.31
2023-02-27T14:33:07.146Z,5.20
2023-02-27T14:35:35.276Z,5.11
2023-02-27T14:38:10.471Z,4.90
2023-02-27T14:40:47.437Z,4.65
2023-02-27T14:43:44.770Z,4.47
2023-02-27T14:46:19.893Z,4.88
2023-02-27T14:48:46.095Z,4.83
2023-02-27T14:51:12.119Z,4.60
2023-02-27T14:53:38.046Z,4.37
2023-02-27T14:56:04.208Z,4.46
2023-02-27T14:58:30.088Z,4.28
2023-02-27T15:01:04.185Z,4.04
2023-02-27T15:03:46.407Z,3.75
2023-02-27T15:06:17.001Z,3.44
2023-02-27T15:08:47.331Z,3.38
2023-02-27T15:11:15.714Z,3.47
2023-02-27T15:13:42.953Z,3.55
2023-02-27T15:16:19.897Z,3.57
2023-02-27T15:18:50.984Z,3.39
2023-02-27T15:21:19.681Z,3.29
2023-02-27T15:24:04.009Z,3.34
2023-02-27T15:26:37.753Z,3.32
2023-02-27T15:29:05.615Z,3.23
2023-02-27T15:31:31.837Z,3.20
2023-02-27T15:34:00.785Z,3.24
2023-02-27T15:36:31.024Z,3.06
2023-02-27T15:39:14.585Z,3.04
2023-02-27T15:41:51.818Z,3.12
2023-02-27T15:44:22.948Z,3.00
2023-02-27T15:46:50.305Z,3.12
2023-02-27T15:49:22.014Z,3.11
2023-02-27T15:51:57.604Z,2.98
2023-02-27T15:54:23.394Z,2.94
2023-02-27T15:56:50.407Z,2.78
2023-02-27T15:59:18.941Z,2.76
2023-02-27T16:01:47.253Z,2.79
2023-02-27T16:04:22.927Z,2.59
2023-02-27T16:07:02.104Z,2.49
2023-02-27T16:09:32.287Z,2.43
2023-02-27T16:12:29.315Z,2.50
2023-02-27T16:15:26.324Z,2.48
2023-02-27T16:18:00.675Z,2.44
2023-02-27T16:20:55.032Z,2.50
2023-02-27T16:23:20.987Z,2.43
2023-02-27T16:26:08.374Z,2.25
2023-02-27T16:29:00.469Z,2.26
2023-02-27T16:31:28.022Z,2.40
2023-02-27T16:33:56.181Z,2.41
2023-02-27T16:36:28.452Z,2.37
2023-02-27T16:38:54.876Z,2.45
2023-02-27T16:41:22.211Z,2.32
2023-02-27T16:43:48.487Z,2.27
2023-02-27T16:46:20.849Z,2.25
2023-02-27T16:48:53.258Z,2.19
2023-02-27T16:51:23.149Z,2.06
2023-02-27T16:53:50.644Z,1.94
2023-02-27T16:56:21.484Z,2.02
2023-02-27T16:58:52.505Z,1.92
2023-02-27T17:01:18.586Z,1.83
2023-02-27T17:03:45.961Z,1.84
2023-02-27T17:06:13.812Z,1.86
2023-02-27T17:08:42.173Z,1.92
2023-02-27T17:11:08.747Z,1.87
2023-02-27T17:13:38.138Z,1.99
2023-02-27T17:16:05.111Z,1.95
2023-02-27T17:18:31.440Z,1.91
2023-02-27T17:21:01.657Z,1.78
2023-02-27T17:23:27.594Z,1.93
2023-02-27T17:25:53.704Z,1.96
2023-02-27T17:28:20.691Z,1.86
2023-02-27T17:30:47.498Z,1.93
2023-02-27T17:33:13.503Z,1.80
2023-02-27T17:35:39.419Z,1.69
2023-02-27T17:38:07.374Z,1.57
2023-02-27T17:40:35.794Z,1.65
2023-02-27T17:43:01.683Z,1.49
2023-02-27T17:45:27.666Z,1.62
2023-02-27T17:47:53.711Z,1.71
2023-02-27T17:50:19.577Z,1.70
2023-02-27T17:52:45.500Z,1.69
2023-02-27T17:55:13.570Z,1.75
2023-02-27T17:57:41.821Z,1.71
2023-02-27T18:00:13.670Z,1.60
2023-02-27T18:02:41.540Z,1.70
2023-02-27T18:05:07.733Z,1.58
2023-02-27T18:07:34.031Z,1.64
2023-02-27T18:10:00.013Z,1.66
2023-02-27T18:12:25.911Z,1.78
2023-02-27T18:14:51.818Z,1.58
2023-02-27T18:17:17.620Z,1.52
2023-02-27T18:19:43.641Z,1.47
2023-02-27T18:22:10.198Z,1.35
2023-02-27T18:24:37.364Z,1.51
2023-02-27T18:27:03.605Z,1.64
2023-02-27T18:29:29.732Z,1.59
2023-02-27T18:31:56.057Z,1.54
2023-02-27T18:34:23.004Z,1.57
2023-02-27T18:36:51.182Z,1.46
2023-02-27T18:39:17.723Z,1.52
2023-02-27T18:41:43.766Z,1.47
2023-02-27T18:44:10.014Z,1.43
2023-02-27T18:46:37.602Z,1.40
2023-02-27T18:49:04.110Z,1.54
2023-02-27T18:51:30.209Z,1.46
2023-02-27T18:53:57.564Z,1.35
2023-02-27T18:56:24.690Z,1.34
2023-02-27T18:58:51.245Z,1.24
2023-02-27T19:01:28.755Z,1.23
2023-02-27T19:03:59.593Z,1.14
2023-02-27T19:06:26.730Z,1.18
2023-02-27T19:08:52.811Z,1.06
2023-02-27T19:11:22.414Z,1.08
2023-02-27T19:13:48.351Z,0.99
2023-02-27T19:16:14.607Z,1.03
2023-02-27T19:18:40.460Z,0.94
2023-02-27T19:21:06.769Z,0.93
2023-02-27T19:23:32.570Z,0.96
2023-02-27T19:26:01.336Z,1.03
2023-02-27T19:28:27.325Z,1.00
2023-02-27T19:30:53.489Z,1.05
2023-02-27T19:33:19.767Z,1.01
2023-02-27T19:35:46.379Z,0.90
2023-02-27T19:38:12.248Z,0.78
2023-02-27T19:40:38.116Z,0.80
2023-02-27T19:43:04.135Z,0.83
2023-02-27T19:45:30.236Z,0.68
2023-02-27T19:47:56.206Z,0.82
2023-02-27T19:50:22.095Z,0.64
2023-02-27T19:52:48.098Z,0.66
2023-02-27T19:55:14.204Z,0.72
2023-02-27T19:57:40.176Z,0.59
2023-02-27T20:00:07.527Z,0.49
2023-02-27T20:02:33.390Z,0.47
2023-02-27T20:04:59.446Z,0.59
2023-02-27T20:07:28.275Z,0.49
2023-02-27T20:09:57.282Z,0.45
2023-02-27T20:12:24.991Z,0.36
2023-02-27T20:14:51.240Z,0.34
2023-02-27T20:17:17.468Z,0.30
2023-02-27T20:19:43.385Z,0.33
2023-02-27T20:22:12.826Z,0.43
2023-02-27T20:24:39.187Z,0.29
2023-02-27T20:27:06.567Z,0.28
2023-02-27T20:29:32.473Z,0.23
2023-02-27T20:31:58.428Z,0.07
2023-02-27T20:34:25.720Z,0.03
2023-02-27T20:36:53.640Z,0.06
2023-02-27T20:39:22.418Z,0.18
2023-02-27T20:41:48.821Z,0.07
2023-02-27T20:44:14.977Z,0.11
2023-02-27T20:46:43.102Z,0.04
2023-02-27T20:49:11.750Z,0.10
2023-02-27T20:51:39.613Z,0.02
2023-02-27T20:54:08.828Z,-0.01
2023-02-27T20:56:39.241Z,-0.06
2023-02-27T20:59:07.399Z,0.04
2023-02-27T21:01:33.599Z,-0.13
2023-02-27T21:03:59.833Z,-0.03
2023-02-27T21:06:26.665Z,-0.20
2023-02-27T21:08:55.220Z,-0.15
2023-02-27T21:11:29.667Z,-0.26
2023-02-27T21:13:57.778Z,-0.25
2023-02-27T21:16:27.247Z,-0.31
2023-02-27T21:18:55.853Z,-0.26
2023-02-27T21:21:30.662Z,-0.23
2023-02-27T21:23:57.816Z,-0.18
2023-02-27T21:26:25.081Z,-0.06
2023-02-27T21:29:06.041Z,-0.11
2023-02-27T21:31:33.614Z,-0.12
2023-02-27T21:34:03.720Z,-0.28
2023-02-27T21:36:36.462Z,-0.37
2023-02-27T21:39:05.835Z,-0.42
2023-02-27T21:41:32.682Z,-0.46
2023-02-27T21:44:03.354Z,-0.46
2023-02-27T21:46:29.928Z,-0.47
2023-02-27T21:48:55.976Z,-0.41
2023-02-27T21:51:37.034Z,-0.44
2023-02-27T21:54:04.676Z,-0.51
2023-02-27T21:56:30.816Z,-0.56
2023-02-27T21:59:00.928Z,-0.64
2023-02-27T22:01:27.801Z,-0.65
2023-02-27T22:03:54.559Z,-0.62
2023-02-27T22:06:22.814Z,-0.54
2023-02-27T22:08:55.498Z,-0.56
2023-02-27T22:11:23.228Z,-0.67
2023-02-27T22:13:49.158Z,-0.62
2023-02-27T22:16:15.191Z,-0.53
2023-02-27T22:18:41.340Z,-0.54
2023-02-27T22:21:13.133Z,-0.66
2023-02-27T22:23:38.978Z,-0.67
2023-02-27T22:26:08.408Z,-0.72
2023-02-27T22:28:35.391Z,-0.97
2023-02-27T22:31:12.656Z,-0.99
2023-02-27T22:33:39.902Z,-1.09
2023-02-27T22:36:11.202Z,-1.20
2023-02-27T22:38:37.269Z,-1.08
2023-02-27T22:41:05.651Z,-1.04
2023-02-27T22:43:34.013Z,-0.99
2023-02-27T22:46:02.126Z,-1.18
2023-02-27T22:48:28.115Z,-1.06
2023-02-27T22:51:10.598Z,-0.95
2023-02-27T22:53:37.537Z,-1.05
2023-02-27T22:56:06.398Z,-0.97
2023-02-27T22:58:36.988Z,-1.07
2023-02-27T23:01:15.830Z,-0.99
2023-02-27T23:03:43.632Z,-1.09
2023-02-27T23:06:12.750Z,-1.19
2023-02-27T23:08:39.801Z,-1.08
2023-02-27T23:11:06.194Z,-1.04
2023-02-27T23:13:32.059Z,-0.89
2023-02-27T23:15:58.886Z,-0.98
2023-02-27T23:18:24.985Z,-1.03
2023-02-27T23:20:50.889Z,-1.02
2023-02-27T23:23:16.776Z,-1.07
2023-02-27T23:25:42.755Z,-1.05
2023-02-27T23:28:08.581Z,-0.98
2023-02-27T23:30:34.481Z,-1.06
2023-02-27T23:33:00.514Z,-1.18
2023-02-27T23:35:27.170Z,-1.29
2023-02-27T23:37:55.602Z,-1.22
2023-02-27T23:40:23.800Z,-1.20
2023-02-27T23:43:08.056Z,-1.22
2023-02-27T23:45:34.082Z,-1.20
2023-02-27T23:48:01.265Z,-1.20
2023-02-27T23:50:30.329Z,-1.17
2023-02-27T23:52:58.278Z,-1.11
2023-02-27T23:55:27.365Z,-0.99
2023-02-27T23:57:54.636Z,-1.03
